Time;durP1;ratioP1;P1;durP2;ratioP2;P2;SDS_P1;SDS_P2;PMS_P1;PMS_P2;Temp;Humidity;BMP_temperature;BMP_pressure;BME280_temperature;BME280_humidity;BME280_pressure;Samples;Min_cycle;Max_cycle;Signal;HPM_P1;HPM_P2
2020/12/11 00:01:48;;;;;;;;;;;;;;;;;;5095153;28;19904;-67
2020/12/11 00:04:14;;;;;;;;;;;;;;;;;;5095180;28;19907;-67
2020/12/11 00:06:40;;;;;;;;;;;;;;;;;;5095065;28;19904;-68
2020/12/11 00:09:06;;;;;;;;;;;;;;;;;;5095018;28;19912;-68
2020/12/11 00:11:32;;;;;;;;;;;;;;;;;;5095493;28;20330;-69
2020/12/11 00:13:58;;;;;;;;;;;;;;;;;;5095491;28;19904;-68
2020/12/11 00:16:24;;;;;;;;;;;;;;;;;;5094816;28;19994;-68
2020/12/11 00:18:50;;;;;;;;;;;;;;;;;;5094862;28;19998;-69
2020/12/11 00:21:16;;;;;;;;;;;;;;;;;;5094807;28;19911;-68
2020/12/11 00:23:42;;;;;;;;;;;;;;;;;;5094746;28;19904;-68
2020/12/11 00:26:08;;;;;;;;;;;;;;;;;;5094757;28;20377;-68
2020/12/11 00:28:34;;;;;;;;;;;;;;;;;;5094641;28;19910;-71
2020/12/11 00:31:00;;;;;;;;;;;;;;;;;;5095109;28;19951;-68
2020/12/11 00:33:27;;;;;;;;;;;;;;;;;;5093776;28;19904;-68
2020/12/11 00:35:53;;;;;;;;;;;;;;;;;;5094599;28;19994;-68
2020/12/11 00:38:19;;;;;;;;;;;;;;;;;;5095125;28;19942;-70
2020/12/11 00:40:45;;;;;;;;;;;;;;;;;;5094417;28;19961;-68
2020/12/11 00:43:11;;;;;;;;;;;;;;;;;;5092237;28;19922;-68
2020/12/11 00:45:37;;;;;;;;;;;;;;;;;;5094973;28;19904;-68
2020/12/11 00:48:03;;;;;;;;;;;;;;;;;;5094329;28;19911;-68
2020/12/11 00:50:29;;;;;;;;;;;;;;;;;;5094308;28;19965;-68
2020/12/11 00:52:55;;;;;;;;;;;;;;;;;;5094301;28;19908;-68
2020/12/11 00:55:21;;;;;;;;;;;;;;;;;;5094218;28;19911;-68
2020/12/11 00:57:47;;;;;;;;;;;;;;;;;;5094270;28;19912;-68
2020/12/11 01:00:13;;;;;;;;;;;;;;;;;;5094500;28;19904;-68
2020/12/11 01:02:39;;;;;;;;;;;;;;;;;;5094185;28;19908;-68
2020/12/11 01:05:05;;;;;;;;;;;;;;;;;;5094234;28;19908;-68
2020/12/11 01:07:31;;;;;;;;;;;;;;;;;;5094143;28;19904;-68
2020/12/11 01:09:57;;;;;;;;;;;;;;;;;;5094596;28;19912;-69
2020/12/11 01:12:23;;;;;;;;;;;;;;;;;;5094720;28;19943;-68
2020/12/11 01:14:49;;;;;;;;;;;;;;;;;;5094045;28;20370;-68
2020/12/11 01:17:15;;;;;;;;;;;;;;;;;;5094312;28;20346;-68
2020/12/11 01:19:41;;;;;;;;;;;;;;;;;;5094337;28;19904;-68
2020/12/11 01:22:07;;;;;;;;;;;;;;;;;;5093992;28;19904;-68
2020/12/11 01:24:33;;;;;;;;;;;;;;;;;;5094013;28;19905;-68
2020/12/11 01:26:59;;;;;;;;;;;;;;;;;;5094162;28;19911;-68
2020/12/11 01:29:25;;;;;;;;;;;;;;;;;;5093853;28;19934;-68
2020/12/11 01:31:51;;;;;;;;;;;;;;;;;;5094475;28;19930;-68
2020/12/11 01:34:18;;;;;;;;;;;;;;;;;;5093931;28;19911;-68
2020/12/11 01:36:44;;;;;;;;;;;;;;;;;;5094426;28;19911;-68
2020/12/11 01:39:10;;;;;;;;;;;;;;;;;;5093830;28;19904;-68
2020/12/11 01:41:36;;;;;;;;;;;;;;;;;;5093630;28;19912;-68
2020/12/11 01:44:02;;;;;;;;;;;;;;;;;;5095821;28;20266;-68
2020/12/11 01:46:28;;;;;;;;;;;;;;;;;;5079569;28;20312;-68
2020/12/11 01:48:54;;;;;;;;;;;;;;;;;;5097720;28;19904;-69
2020/12/11 01:51:20;;;;;;;;;;;;;;;;;;5097621;28;19912;-68
2020/12/11 01:53:46;;;;;;;;;;;;;;;;;;5097623;28;19903;-68
2020/12/11 01:56:12;;;;;;;;;;;;;;;;;;5097599;28;20304;-68
2020/12/11 01:58:38;;;;;;;;;;;;;;;;;;5097865;28;20345;-68
2020/12/11 02:01:05;;;;;;;;;;;;;;;;;;5097467;28;19958;-68
2020/12/11 02:03:31;;;;;;;;;;;;;;;;;;5097715;28;20327;-68
2020/12/11 02:05:57;;;;;;;;;;;;;;;;;;5097672;28;20414;-68
2020/12/11 02:08:23;;;;;;;;;;;;;;;;;;5097342;28;19942;-69
2020/12/11 02:10:49;;;;;;;;;;;;;;;;;;5097841;28;19919;-69
2020/12/11 02:13:15;;;;;;;;;;;;;;;;;;5097221;28;19915;-68
2020/12/11 02:15:41;;;;;;;;;;;;;;;;;;5097263;28;19911;-68
2020/12/11 02:18:07;;;;;;;;;;;;;;;;;;5097742;28;19904;-68
2020/12/11 02:20:33;;;;;;;;;;;;;;;;;;5097109;28;19932;-68
2020/12/11 02:23:00;;;;;;;;;;;;;;;;;;5097637;28;19966;-69
2020/12/11 02:25:26;;;;;;;;;;;;;;;;;;5096979;28;20003;-68
2020/12/11 02:27:52;;;;;;;;;;;;;;;;;;5097225;28;19904;-68
2020/12/11 02:30:18;;;;;;;;;;;;;;;;;;5096887;28;19912;-68
2020/12/11 02:32:44;;;;;;;;;;;;;;;;;;5096898;28;19911;-69
2020/12/11 02:35:10;;;;;;;;;;;;;;;;;;5096897;28;19990;-68
2020/12/11 02:37:36;;;;;;;;;;;;;;;;;;5097063;28;19907;-68
2020/12/11 02:40:02;;;;;;;;;;;;;;;;;;5096750;28;19972;-68
2020/12/11 02:42:28;;;;;;;;;;;;;;;;;;5096517;28;19986;-70
2020/12/11 02:44:54;;;;;;;;;;;;;;;;;;5097238;28;19904;-70
2020/12/11 02:47:20;;;;;;;;;;;;;;;;;;5096624;28;20278;-69
2020/12/11 02:49:46;;;;;;;;;;;;;;;;;;5096484;28;20366;-68
2020/12/11 02:52:12;;;;;;;;;;;;;;;;;;5096490;28;19904;-68
2020/12/11 02:54:38;;;;;;;;;;;;;;;;;;5096260;28;20365;-65
2020/12/11 02:57:04;;;;;;;;;;;;;;;;;;5095978;28;19927;-65
2020/12/11 02:59:30;;;;;;;;;;;;;;;;;;5096355;28;19904;-66
2020/12/11 03:01:56;;;;;;;;;;;;;;;;;;5096559;28;20300;-65
2020/12/11 03:04:22;;;;;;;;;;;;;;;;;;5096240;28;20346;-66
2020/12/11 03:06:48;;;;;;;;;;;;;;;;;;5096205;28;19904;-66
2020/12/11 03:09:14;;;;;;;;;;;;;;;;;;5096125;28;19904;-65
2020/12/11 03:11:40;;;;;;;;;;;;;;;;;;5096024;28;19912;-65
2020/12/11 03:14:06;;;;;;;;;;;;;;;;;;5096130;28;19904;-66
2020/12/11 03:16:33;;;;;;;;;;;;;;;;;;5096035;28;19966;-69
2020/12/11 03:18:59;;;;;;;;;;;;;;;;;;5096248;28;20265;-65
2020/12/11 03:21:25;;;;;;;;;;;;;;;;;;5096758;28;20348;-65
2020/12/11 03:23:51;;;;;;;;;;;;;;;;;;5096483;28;20327;-65
2020/12/11 03:26:17;;;;;;;;;;;;;;;;;;5095749;28;20265;-65
2020/12/11 03:28:43;;;;;;;;;;;;;;;;;;5096341;28;20277;-68
2020/12/11 03:31:09;;;;;;;;;;;;;;;;;;5095622;28;19919;-65
2020/12/11 03:33:35;;;;;;;;;;;;;;;;;;5096240;28;19934;-65
2020/12/11 03:36:01;;;;;;;;;;;;;;;;;;5095670;28;20373;-66
2020/12/11 03:38:27;;;;;;;;;;;;;;;;;;5095540;28;19911;-65
2020/12/11 03:40:53;;;;;;;;;;;;;;;;;;5095519;28;19911;-65
2020/12/11 03:43:19;;;;;;;;;;;;;;;;;;5095357;28;19925;-65
2020/12/11 03:45:45;;;;;;;;;;;;;;;;;;5096059;28;19955;-65
2020/12/11 03:48:11;;;;;;;;;;;;;;;;;;5095720;28;19911;-66
2020/12/11 03:50:37;;;;;;;;;;;;;;;;;;5095324;28;19973;-65
2020/12/11 03:53:03;;;;;;;;;;;;;;;;;;5095561;28;19904;-65
2020/12/11 03:55:29;;;;;;;;;;;;;;;;;;5095356;28;19904;-65
2020/12/11 03:57:55;;;;;;;;;;;;;;;;;;5095236;28;19908;-65
2020/12/11 04:00:21;;;;;;;;;;;;;;;;;;5095782;28;19904;-65
2020/12/11 04:02:47;;;;;;;;;;;;;;;;;;5095197;28;19911;-65
2020/12/11 04:05:13;;;;;;;;;;;;;;;;;;5095405;28;20262;-66
2020/12/11 04:07:39;;;;;;;;;;;;;;;;;;5094913;28;20407;-65
2020/12/11 04:10:05;;;;;;;;;;;;;;;;;;5095275;28;19916;-65
2020/12/11 04:12:32;;;;;;;;;;;;;;;;;;5095237;28;19911;-65
2020/12/11 04:14:58;;;;;;;;;;;;;;;;;;5095205;28;20270;-65
2020/12/11 04:17:24;;;;;;;;;;;;;;;;;;5094893;28;20346;-65
2020/12/11 04:19:50;;;;;;;;;;;;;;;;;;5094827;28;19911;-65
2020/12/11 04:22:16;;;;;;;;;;;;;;;;;;5094785;28;19904;-65
2020/12/11 04:24:42;;;;;;;;;;;;;;;;;;5094796;28;20250;-65
2020/12/11 04:27:08;;;;;;;;;;;;;;;;;;5094709;28;20362;-65
2020/12/11 04:29:34;;;;;;;;;;;;;;;;;;5094607;28;19998;-66
2020/12/11 04:32:00;;;;;;;;;;;;;;;;;;5094623;28;19957;-66
2020/12/11 04:34:26;;;;;;;;;;;;;;;;;;5094524;28;19945;-65
2020/12/11 04:36:52;;;;;;;;;;;;;;;;;;5095105;28;19962;-65
2020/12/11 04:39:18;;;;;;;;;;;;;;;;;;5094797;28;19904;-65
2020/12/11 04:41:44;;;;;;;;;;;;;;;;;;5094331;28;19923;-65
2020/12/11 04:44:10;;;;;;;;;;;;;;;;;;5094455;28;19954;-68
2020/12/11 04:46:36;;;;;;;;;;;;;;;;;;5094716;28;20254;-66
2020/12/11 04:49:03;;;;;;;;;;;;;;;;;;5094363;28;20358;-66
2020/12/11 04:51:29;;;;;;;;;;;;;;;;;;5094271;28;19912;-65
2020/12/11 04:53:55;;;;;;;;;;;;;;;;;;5094908;28;19959;-66
2020/12/11 04:56:21;;;;;;;;;;;;;;;;;;5095178;28;20298;-65
2020/12/11 04:58:47;;;;;;;;;;;;;;;;;;5094192;28;20358;-66
2020/12/11 05:01:13;;;;;;;;;;;;;;;;;;5094232;28;19904;-66
2020/12/11 05:03:39;;;;;;;;;;;;;;;;;;5094220;28;19904;-65
2020/12/11 05:06:05;;;;;;;;;;;;;;;;;;5094137;28;19908;-66
2020/12/11 05:08:31;;;;;;;;;;;;;;;;;;5094183;28;19904;-65
2020/12/11 05:10:57;;;;;;;;;;;;;;;;;;5094017;28;19919;-66
2020/12/11 05:13:23;;;;;;;;;;;;;;;;;;5094041;28;19911;-65
2020/12/11 05:15:49;;;;;;;;;;;;;;;;;;5094045;28;19904;-66
2020/12/11 05:18:15;;;;;;;;;;;;;;;;;;5094097;28;19908;-65
2020/12/11 05:20:41;;;;;;;;;;;;;;;;;;5098862;28;19908;-66
2020/12/11 05:23:08;;;;;;;;;;;;;;;;;;5098175;28;19904;-65
2020/12/11 05:25:34;;;;;;;;;;;;;;;;;;5098194;28;19904;-65
2020/12/11 05:28:00;;;;;;;;;;;;;;;;;;5098074;28;19939;-65
2020/12/11 05:30:26;;;;;;;;;;;;;;;;;;5098050;28;19915;-66
2020/12/11 05:32:52;;;;;;;;;;;;;;;;;;5098042;28;19911;-66
2020/12/11 05:35:18;;;;;;;;;;;;;;;;;;5098018;28;20281;-66
2020/12/11 05:37:44;;;;;;;;;;;;;;;;;;5097955;28;20302;-66
2020/12/11 05:40:10;;;;;;;;;;;;;;;;;;5098372;28;19908;-65
2020/12/11 05:42:36;;;;;;;;;;;;;;;;;;5098356;28;19916;-66
2020/12/11 05:45:02;;;;;;;;;;;;;;;;;;5097778;28;19904;-65
2020/12/11 05:47:28;;;;;;;;;;;;;;;;;;5097745;28;19911;-66
2020/12/11 05:49:54;;;;;;;;;;;;;;;;;;5097589;28;19919;-66
2020/12/11 05:52:23;;;;;;;;;;;;;;;;;;5097962;28;19938;-66
2020/12/11 05:54:49;;;;;;;;;;;;;;;;;;5097565;28;19904;-65
2020/12/11 05:57:15;;;;;;;;;;;;;;;;;;5097520;28;19908;-66
2020/12/11 05:59:41;;;;;;;;;;;;;;;;;;5097503;28;19936;-66
2020/12/11 06:02:07;;;;;;;;;;;;;;;;;;5097423;28;19994;-66
2020/12/11 06:04:33;;;;;;;;;;;;;;;;;;5097982;28;20301;-65
2020/12/11 06:06:59;;;;;;;;;;;;;;;;;;5097312;28;19904;-65
2020/12/11 06:09:25;;;;;;;;;;;;;;;;;;5097591;28;20342;-65
2020/12/11 06:11:51;;;;;;;;;;;;;;;;;;5097090;28;19912;-66
2020/12/11 06:14:17;;;;;;;;;;;;;;;;;;5097156;28;19947;-66
2020/12/11 06:16:43;;;;;;;;;;;;;;;;;;5097495;28;19904;-65
2020/12/11 06:19:09;;;;;;;;;;;;;;;;;;5097014;28;19908;-69
2020/12/11 06:21:36;;;;;;;;;;;;;;;;;;5097641;28;19931;-66
2020/12/11 06:24:02;;;;;;;;;;;;;;;;;;5097327;28;19904;-65
2020/12/11 06:26:28;;;;;;;;;;;;;;;;;;5098158;28;20250;-68
2020/12/11 06:28:54;;;;;;;;;;;;;;;;;;5097159;28;20365;-65
2020/12/11 06:31:20;;;;;;;;;;;;;;;;;;5095421;28;20010;-66
2020/12/11 06:33:46;;;;;;;;;;;;;;;;;;5096879;28;19903;-66
2020/12/11 06:36:12;;;;;;;;;;;;;;;;;;5096793;28;19904;-65
2020/12/11 06:38:38;;;;;;;;;;;;;;;;;;5097070;28;19911;-65
2020/12/11 06:41:04;;;;;;;;;;;;;;;;;;5096565;28;19904;-65
2020/12/11 06:43:30;;;;;;;;;;;;;;;;;;5096629;28;19915;-69
2020/12/11 06:45:56;;;;;;;;;;;;;;;;;;5096581;28;19908;-66
2020/12/11 06:48:22;;;;;;;;;;;;;;;;;;5096485;28;19911;-66
2020/12/11 06:50:48;;;;;;;;;;;;;;;;;;5096482;28;19912;-66
2020/12/11 06:53:14;;;;;;;;;;;;;;;;;;5096417;28;19904;-66
2020/12/11 06:55:40;;;;;;;;;;;;;;;;;;5096384;28;19904;-66
2020/12/11 06:58:06;;;;;;;;;;;;;;;;;;5096347;28;19904;-66
2020/12/11 07:00:32;;;;;;;;;;;;;;;;;;5096639;28;19908;-66
2020/12/11 07:02:58;;;;;;;;;;;;;;;;;;5096246;28;19947;-66
2020/12/11 07:05:24;;;;;;;;;;;;;;;;;;5096205;28;19911;-69
2020/12/11 07:07:50;;;;;;;;;;;;;;;;;;5096144;28;19911;-66
2020/12/11 07:10:16;;;;;;;;;;;;;;;;;;5096094;28;19919;-66
2020/12/11 07:12:42;;;;;;;;;;;;;;;;;;5096069;28;19911;-66
2020/12/11 07:15:15;;;;;;;515.60;189.80;;;;;;;;;;5095894;28;19949;-66
2020/12/11 07:17:42;;;;;;;512.17;183.10;;;;;;;;;;5094547;28;20371;-69
2020/12/11 07:20:09;;;;;;;514.88;187.65;;;;;;;;;;5094005;28;20373;-65
2020/12/11 07:22:35;;;;;;;511.42;183.50;;;;;;;;;;5094366;28;20380;-66
2020/12/11 07:25:02;;;;;;;509.58;177.88;;;;;;;;;;5094105;28;20898;-65
2020/12/11 07:27:28;;;;;;;510.95;181.35;;;;;;;;;;5094014;28;20452;-65
2020/12/11 07:29:54;;;;;;;512.08;185.60;;;;;;;;;;5093931;28;20927;-66
2020/12/11 07:32:22;;;;;;;509.85;178.85;;;;;;;;;;5093978;28;20365;-65
2020/12/11 07:34:48;;;;;;;509.38;176.15;;;;;;;;;;5093816;28;20392;-65
2020/12/11 07:37:15;;;;;;;510.08;180.02;;;;;;;;;;5093848;28;20367;-65
2020/12/11 07:39:41;;;;;;;511.83;185.35;;;;;;;;;;5094040;28;20412;-68
2020/12/11 07:42:09;;;;;;;506.35;171.15;;;;;;;;;;5093093;28;20421;-67
2020/12/11 07:44:36;;;;;;;506.58;170.57;;;;;;;;;;5093622;28;20506;-67
2020/12/11 07:47:09;;;;;;;505.93;166.07;;;;;;;;;;5092821;28;20417;-64
2020/12/11 07:49:35;;;;;;;505.65;164.25;;;;;;;;;;5092993;28;20372;-66
2020/12/11 07:52:01;;;;;;;505.75;164.05;;;;;;;;;;5093776;28;20702;-66
2020/12/11 07:54:34;;;;;;;505.67;164.70;;;;;;;;;;5093763;28;20361;-66
2020/12/11 07:57:20;;;;;;;506.02;166.82;;;;;;;;;;5093330;28;20361;-66
2020/12/11 07:59:57;;;;;;;506.58;170.57;;;;;;;;;;5093171;28;20364;-66
2020/12/11 08:02:26;;;;;;;506.55;170.32;;;;;;;;;;5093549;28;20372;-65
2020/12/11 08:04:52;;;;;;;508.77;173.45;;;;;;;;;;5093553;28;20399;-66
2020/12/11 08:07:22;;;;;;;508.55;175.90;;;;;;;;;;5093402;28;20440;-66
2020/12/11 08:09:49;;;;;;;507.23;170.98;;;;;;;;;;5093002;28;20360;-65
2020/12/11 08:12:18;;;;;;;508.38;175.35;;;;;;;;;;5093076;28;20365;-66
2020/12/11 08:14:45;;;;;;;507.90;173.18;;;;;;;;;;5092996;28;20436;-66
2020/12/11 08:17:12;;;;;;;507.92;171.60;;;;;;;;;;5093224;28;20373;-65
2020/12/11 08:19:39;;;;;;;506.43;173.23;;;;;;;;;;5093395;28;20413;-66
2020/12/11 08:22:12;;;;;;;508.67;173.60;;;;;;;;;;5093200;28;20464;-68
2020/12/11 08:24:38;;;;;;;506.77;170.07;;;;;;;;;;5092889;28;20367;-69
2020/12/11 08:27:05;;;;;;;507.42;170.77;;;;;;;;;;5093107;28;20375;-69
2020/12/11 08:29:31;;;;;;;509.38;180.25;;;;;;;;;;5092732;28;20364;-65
2020/12/11 08:31:57;;;;;;;509.42;178.57;;;;;;;;;;5093012;28;20497;-65
2020/12/11 08:34:28;;;;;;;507.45;177.18;;;;;;;;;;5093041;28;20707;-66
2020/12/11 08:37:01;;;;;;;507.48;175.70;;;;;;;;;;5092651;28;20375;-65
2020/12/11 08:39:30;;;;;;;507.77;175.45;;;;;;;;;;5092599;28;20356;-67
2020/12/11 08:49:48;;;;;;;513.03;185.10;;;;;;;;;;5092496;28;20457;-65
2020/12/11 08:52:15;;;;;;;514.87;192.97;;;;;;;;;;5092709;28;20380;-66
2020/12/11 08:54:41;;;;;;;513.33;189.23;;;;;;;;;;5091688;28;20392;-65
2020/12/11 08:57:07;;;;;;;514.08;188.85;;;;;;;;;;5092399;28;20372;-66
2020/12/11 08:59:34;;;;;;;512.67;187.60;;;;;;;;;;5092332;28;20411;-65
2020/12/11 09:02:01;;;;;;;511.43;184.10;;;;;;;;;;5092640;28;20918;-65
2020/12/11 09:04:27;;;;;;;512.53;186.50;;;;;;;;;;5092585;28;20364;-65
2020/12/11 09:06:53;;;;;;;513.80;190.53;;;;;;;;;;5092323;28;20493;-70
2020/12/11 09:09:19;;;;;;;514.88;196.57;;;;;;;;;;5092175;28;20356;-65
2020/12/11 09:11:45;;;;;;;516.63;198.70;;;;;;;;;;5092049;28;20400;-65
2020/12/11 09:14:12;;;;;;;516.67;197.75;;;;;;;;;;5092490;28;20383;-65
2020/12/11 09:16:38;;;;;;;516.05;193.65;;;;;;;;;;5092097;28;20368;-63
2020/12/11 09:19:04;;;;;;;513.88;188.55;;;;;;;;;;5092030;28;20356;-64
2020/12/11 09:21:30;;;;;;;515.83;193.43;;;;;;;;;;5092151;28;20364;-65
2020/12/11 09:23:57;;;;;;;516.00;195.70;;;;;;;;;;5092336;28;20450;-65
2020/12/11 09:26:26;;;;;;;514.10;190.97;;;;;;;;;;5092089;28;20433;-64
2020/12/11 09:28:59;;;;;;;514.33;188.98;;;;;;;;;;5092268;28;20739;-65
2020/12/11 09:31:26;;;;;;;516.63;194.63;;;;;;;;;;5091947;28;20396;-64
2020/12/11 09:33:53;;;;;;;516.08;194.23;;;;;;;;;;5092017;28;20809;-65
2020/12/11 09:36:19;;;;;;;516.42;197.02;;;;;;;;;;5091907;28;20368;-70
2020/12/11 09:38:45;;;;;;;518.15;199.02;;;;;;;;;;5091970;28;20723;-64
2020/12/11 09:41:15;;;;;;;517.95;198.93;;;;;;;;;;5091752;28;20372;-65
2020/12/11 09:46:41;;;;;;;518.22;203.15;;;;;;;;;;5091941;28;20344;-65
2020/12/11 09:49:14;;;;;;;518.28;202.52;;;;;;;;;;5092173;28;20412;-65
2020/12/11 09:54:27;;;;;;;518.03;201.10;;;;;;;;;;5091907;28;20356;-65
2020/12/11 09:56:56;;;;;;;520.63;207.07;;;;;;;;;;5092116;28;20537;-65
2020/12/11 10:02:37;;;;;;;521.35;209.48;;;;;;;;;;5091710;28;20382;-65
2020/12/11 10:04:47;;;;;;;522.17;210.55;;;;;;;;;;5088347;28;20368;-66
2020/12/11 10:07:14;;;;;;;522.10;210.25;;;;;;;;;;5096098;28;20841;-66
2020/12/11 10:09:42;;;;;;;524.45;218.50;;;;;;;;;;5095699;28;20830;-66
2020/12/11 10:12:09;;;;;;;522.95;209.65;;;;;;;;;;5095434;28;20376;-66
2020/12/11 10:14:38;;;;;;;522.50;211.70;;;;;;;;;;5095651;28;20361;-66
2020/12/11 10:17:04;;;;;;;523.10;212.18;;;;;;;;;;5095279;28;20379;-66
2020/12/11 10:19:31;;;;;;;522.90;211.85;;;;;;;;;;5095257;28;20365;-65
2020/12/11 10:21:57;;;;;;;521.15;205.38;;;;;;;;;;5095733;28;20364;-68
2020/12/11 10:24:24;;;;;;;520.42;203.52;;;;;;;;;;5095112;28;20372;-70
2020/12/11 10:26:50;;;;;;;520.47;204.27;;;;;;;;;;5095404;28;20368;-65
2020/12/11 10:29:17;;;;;;;522.58;211.70;;;;;;;;;;5092726;28;20373;-65
2020/12/11 10:31:44;;;;;;;520.15;203.38;;;;;;;;;;5094296;28;20393;-66
2020/12/11 10:34:13;;;;;;;520.55;204.50;;;;;;;;;;5094825;28;20849;-66
2020/12/11 10:36:40;;;;;;;520.88;206.02;;;;;;;;;;5094657;28;20362;-66
2020/12/11 10:39:07;;;;;;;521.80;210.48;;;;;;;;;;5094414;28;20440;-69
2020/12/11 10:41:33;;;;;;;522.00;211.38;;;;;;;;;;5094549;28;20408;-66
2020/12/11 10:44:00;;;;;;;521.05;207.65;;;;;;;;;;5094655;28;20361;-66
2020/12/11 10:46:26;;;;;;;521.70;207.10;;;;;;;;;;5094305;28;20447;-66
2020/12/11 10:48:52;;;;;;;523.40;213.68;;;;;;;;;;5094680;28;20414;-66
2020/12/11 10:51:19;;;;;;;522.53;211.30;;;;;;;;;;5094742;28;20428;-66
2020/12/11 10:53:46;;;;;;;523.90;214.60;;;;;;;;;;5094527;28;20359;-67
2020/12/11 10:56:13;;;;;;;524.13;214.25;;;;;;;;;;5094475;28;20365;-67
2020/12/11 10:58:40;;;;;;;523.58;215.25;;;;;;;;;;5094241;28;20498;-67
2020/12/11 11:01:08;;;;;;;523.97;214.25;;;;;;;;;;5093834;28;20380;-66
2020/12/11 11:03:34;;;;;;;521.80;209.07;;;;;;;;;;5094581;28;20372;-67
2020/12/11 11:06:10;;;;;;;522.75;210.50;;;;;;;;;;5094320;28;20375;-67
2020/12/11 11:08:46;;;;;;;522.60;209.75;;;;;;;;;;5093620;28;20833;-66
2020/12/11 11:11:19;;;;;;;520.53;204.23;;;;;;;;;;5094024;28;20396;-69
2020/12/11 11:13:59;;;;;;;521.55;208.13;;;;;;;;;;5093762;28;20373;-66
2020/12/11 11:19:27;;;;;;;521.40;207.75;;;;;;;;;;5094345;28;20426;-66
2020/12/11 11:22:16;;;;;;;522.53;208.70;;;;;;;;;;5093017;28;20439;-66
2020/12/11 11:27:25;;;;;;;522.65;209.85;;;;;;;;;;5094080;28;20826;-67
2020/12/11 11:29:51;;;;;;;522.80;210.30;;;;;;;;;;5093430;28;20356;-66
2020/12/11 11:32:17;;;;;;;520.77;206.40;;;;;;;;;;5093582;28;20375;-67
2020/12/11 11:34:44;;;;;;;523.22;212.57;;;;;;;;;;5093135;28;20361;-69
2020/12/11 11:37:10;;;;;;;524.83;217.32;;;;;;;;;;5093075;28;20375;-66
2020/12/11 11:39:37;;;;;;;523.05;208.40;;;;;;;;;;5093462;28;20357;-65
2020/12/11 11:42:03;;;;;;;523.63;210.60;;;;;;;;;;5093411;28;20909;-69
2020/12/11 11:46:55;;;;;;;522.03;208.50;;;;;;;;;;5093350;28;20365;-67
2020/12/11 11:49:52;;;;;;;522.47;209.02;;;;;;;;;;5093325;28;20394;-67
2020/12/11 11:54:55;;;;;;;525.38;215.40;;;;;;;;;;5093237;28;20852;-66
2020/12/11 11:57:22;;;;;;;523.75;211.80;;;;;;;;;;5093217;28;20452;-66
2020/12/11 11:59:48;;;;;;;525.83;214.23;;;;;;;;;;5093155;28;20368;-65
2020/12/11 12:02:14;;;;;;;525.20;216.50;;;;;;;;;;5093206;28;20372;-64
2020/12/11 12:04:41;;;;;;;527.08;218.77;;;;;;;;;;5093208;28;20372;-67
2020/12/11 12:07:08;;;;;;;528.40;220.65;;;;;;;;;;5092851;28;20426;-66
2020/12/11 12:09:34;;;;;;;528.28;222.13;;;;;;;;;;5092802;28;20885;-66
2020/12/11 12:12:00;;;;;;;529.88;225.90;;;;;;;;;;5093203;28;20486;-66
2020/12/11 12:14:27;;;;;;;526.60;220.25;;;;;;;;;;5092548;28;20360;-66
2020/12/11 12:16:59;;;;;;;526.10;217.20;;;;;;;;;;5092914;28;20425;-65
2020/12/11 12:19:33;;;;;;;526.95;219.75;;;;;;;;;;5092946;28;20861;-66
2020/12/11 12:27:42;;;;;;;530.95;231.73;;;;;;;;;;5093098;28;20426;-65
2020/12/11 12:30:08;;;;;;;527.60;227.05;;;;;;;;;;5092334;28;20384;-66
2020/12/11 12:32:47;;;;;;;529.08;230.35;;;;;;;;;;5092712;28;20518;-67
2020/12/11 12:35:32;;;;;;;533.35;238.10;;;;;;;;;;5092701;28;20385;-66
2020/12/11 12:37:58;;;;;;;;;;;;;;;;;;5093980;28;20395;-68
2020/12/11 12:43:16;;;;;;;;;;;;;;;;;;5094284;28;19968;-67
2020/12/11 12:45:42;;;;;;;;;;;;;;;;;;5092446;28;19904;-65
2020/12/11 12:48:08;;;;;;;;;;;;;;;;;;5094402;28;19957;-66
2020/12/11 12:50:34;;;;;;;;;;;;;;;;;;5094198;28;20010;-66
2020/12/11 12:53:00;;;;;;;;;;;;;;;;;;5094366;28;20312;-66
2020/12/11 12:55:41;;;;;;;;;;;;;;;;;;5094526;28;19904;-65
2020/12/11 12:58:08;;;;;;;;;;;;;;;;;;5094542;28;19911;-65
2020/12/11 13:00:56;;;;;;;;;;;;;;;;;;5094190;28;20346;-65
2020/12/11 13:03:43;;;;;;;;;;;;;;;;;;5094794;28;19908;-66
2020/12/11 13:06:09;;;;;;;;;;;;;;;;;;5094436;28;20052;-65
2020/12/11 13:08:35;;;;;;;534.35;239.98;;;;;;;;;;5092697;28;20835;-66
2020/12/11 13:11:01;;;;;;;535.70;240.80;;;;;;;;;;5092102;28;20403;-66
2020/12/11 13:13:28;;;;;;;535.58;242.90;;;;;;;;;;5092520;28;20368;-65
2020/12/11 13:15:54;;;;;;;533.10;237.43;;;;;;;;;;5092265;28;20477;-65
2020/12/11 13:18:20;;;;;;;533.15;235.30;;;;;;;;;;5092483;28;20361;-65
2020/12/11 13:20:47;;;;;;;531.03;229.00;;;;;;;;;;5092242;28;20368;-65
2020/12/11 13:28:37;;;;;;;533.05;235.40;;;;;;;;;;5092176;28;20768;-65
2020/12/11 13:31:03;;;;;;;531.53;232.63;;;;;;;;;;5092229;28;20446;-65
2020/12/11 13:33:29;;;;;;;533.42;233.73;;;;;;;;;;5092038;28;20364;-65
2020/12/11 13:35:56;;;;;;;534.00;237.60;;;;;;;;;;5091954;28;20479;-65
2020/12/11 13:38:22;;;;;;;531.30;229.00;;;;;;;;;;5092071;28;20436;-65
2020/12/11 13:40:48;;;;;;;531.13;229.95;;;;;;;;;;5094696;28;20360;-67
2020/12/11 13:43:14;;;;;;;532.42;233.80;;;;;;;;;;5095398;28;20441;-65
2020/12/11 13:45:40;;;;;;;531.23;226.53;;;;;;;;;;5095918;28;20862;-64
2020/12/11 13:48:06;;;;;;;;;;;;;;;;;;5096683;28;20417;-65
2020/12/11 13:50:33;;;;;;;;;;;;;;;;;;5097655;28;19915;-65
2020/12/11 13:52:59;;;;;;;;;;;;;;;;;;5097937;28;19908;-64
2020/12/11 13:55:25;;;;;;;;;;;;;;;;;;5097572;28;19911;-65
2020/12/11 13:57:52;;;;;;;;;;;;;;;;;;5097634;28;19950;-65
2020/12/11 14:00:18;;;;;;;;;;;;;;;;;;5097621;28;19911;-64
2020/12/11 14:02:44;;;;;;;;;;;;;;;;;;5097458;28;19935;-64
2020/12/11 14:05:11;;;;;;;;;;;;;;;;;;5097308;28;19904;-66
2020/12/11 14:07:37;;;;;;;;;;;;;;;;;;5097310;28;20405;-65
2020/12/11 14:10:03;;;;;;;;;;;;;;;;;;5097601;28;20342;-65
2020/12/11 14:12:29;;;;;;;;;;;;;;;;;;5097333;28;19904;-65
2020/12/11 14:14:55;;;;;;;;;;;;;;;;;;5097295;28;19908;-65
2020/12/11 14:17:32;;;;;;;;;;;;;;;;;;5097253;28;19904;-65
2020/12/11 14:20:17;;;;;;;;;;;;;;;;;;5097176;28;19904;-65
2020/12/11 14:22:51;;;;;;;;;;;;;;;;;;5097152;28;19938;-66
2020/12/11 14:25:17;;;;;;;;;;;;;;;;;;5097335;28;20278;-65
2020/12/11 14:27:43;;;;;;;;;;;;;;;;;;5096875;28;20423;-65
2020/12/11 14:30:09;;;;;;;;;;;;;;;;;;5096831;28;19923;-65
2020/12/11 14:32:35;;;;;;;;;;;;;;;;;;5097183;28;19908;-65
2020/12/11 14:35:01;;;;;;;;;;;;;;;;;;5097156;28;20278;-65
2020/12/11 14:37:30;;;;;;;;;;;;;;;;;;5097122;28;20277;-65
2020/12/11 14:39:56;;;;;;;;;;;;;;;;;;5097100;28;19950;-64
2020/12/11 14:42:22;;;;;;;;;;;;;;;;;;5096550;28;19923;-64
2020/12/11 14:44:48;;;;;;;;;;;;;;;;;;5096633;28;19904;-64
2020/12/11 14:47:14;;;;;;;;;;;;;;;;;;5096718;28;19904;-65
2020/12/11 14:49:41;;;;;;;;;;;;;;;;;;5096932;28;19904;-64
2020/12/11 14:52:07;;;;;;;;;;;;;;;;;;5095951;28;19919;-64
2020/12/11 14:54:33;;;;;;;;;;;;;;;;;;5096510;28;19991;-65
2020/12/11 14:57:01;;;;;;;;;;;;;;;;;;5096996;28;19911;-65
2020/12/11 14:59:27;;;;;;;;;;;;;;;;;;5096962;28;19911;-65
2020/12/11 15:01:53;;;;;;;;;;;;;;;;;;5096330;28;19904;-64
2020/12/11 15:04:19;;;;;;;;;;;;;;;;;;5096282;28;19943;-65
2020/12/11 15:06:45;;;;;;;;;;;;;;;;;;5096297;28;19908;-65
2020/12/11 15:09:11;;;;;;;;;;;;;;;;;;5096257;28;19938;-64
2020/12/11 15:11:37;;;;;;;;;;;;;;;;;;5096047;28;19938;-65
2020/12/11 15:14:03;;;;;;;;;;;;;;;;;;5096464;28;20273;-65
2020/12/11 15:16:29;;;;;;;;;;;;;;;;;;5096377;28;20079;-65
2020/12/11 15:18:55;;;;;;;;;;;;;;;;;;5096321;28;19908;-65
2020/12/11 15:21:21;;;;;;;;;;;;;;;;;;5096087;28;19904;-64
2020/12/11 15:23:47;;;;;;;;;;;;;;;;;;5095963;28;19904;-64
2020/12/11 15:26:14;;;;;;;;;;;;;;;;;;5096126;28;19949;-64
2020/12/11 15:28:40;;;;;;;;;;;;;;;;;;5096156;28;19904;-70
2020/12/11 15:31:06;;;;;;;;;;;;;;;;;;5095762;28;19919;-66
2020/12/11 15:33:32;;;;;;;;;;;;;;;;;;5095831;28;19954;-64
2020/12/11 15:35:58;;;;;;;;;;;;;;;;;;5095959;28;19904;-64
2020/12/11 15:38:24;;;;;;;;;;;;;;;;;;5095685;28;19930;-66
2020/12/11 15:40:50;;;;;;;;;;;;;;;;;;5095655;28;19995;-65
2020/12/11 15:43:17;;;;;;;;;;;;;;;;;;5095368;28;20385;-64
2020/12/11 15:45:45;;;;;;;;;;;;;;;;;;5095833;28;19904;-64
2020/12/11 15:48:11;;;;;;;;;;;;;;;;;;5095842;28;19934;-66
2020/12/11 15:50:37;;;;;;;527.65;222.30;;;;;;;;;;5094530;28;20500;-65
2020/12/11 15:53:04;;;;;;;528.53;224.63;;;;;;;;;;5093538;28;20392;-65
2020/12/11 15:55:31;;;;;;;523.67;208.98;;;;;;;;;;5093557;28;20372;-64
2020/12/11 15:57:57;;;;;;;526.92;214.98;;;;;;;;;;5093673;28;20369;-64
2020/12/11 16:00:26;;;;;;;527.00;215.00;;;;;;;;;;5093186;28;20371;-66
2020/12/11 16:02:52;;;;;;;528.40;218.70;;;;;;;;;;5093259;28;20838;-65
2020/12/11 16:05:18;;;;;;;529.17;219.30;;;;;;;;;;5091962;28;20699;-65
2020/12/11 16:07:45;;;;;;;529.78;220.77;;;;;;;;;;5093143;28;20451;-65
2020/12/11 16:10:11;;;;;;;528.45;217.68;;;;;;;;;;5093029;28;20352;-65
2020/12/11 16:12:38;;;;;;;527.60;217.23;;;;;;;;;;5093454;28;20368;-65